Airfield :
LOGIN :

Register | Disclaimer

   EN    FR    IT 

 










Legend :    VFR   Marginal VFR   IFR   Intensive IFR   Very Intensive IFR
Visi :
Ceiling :
>= 8 km
>= 3000ft
5 to 8 km
1000 to 3000 ft
1500m to 5 km
500 to 1000 ft
800 to 1500m
200 to 500 ft
< 800m
< 200 ft
Symbols :   Thunderstorms  Fog  Heavy snow  Heavy precipitations  Wind > 20 kt
SIGMETs :     Misc.  Thunderstorms  Icing  Turbulence  Mountain Waves  Volcanic Ashes







- Airport Elevation : 17 ft
- IATA code : GRQ


EHGG - Groningen Eelde

CURRENT METAR :
  • 161225Z AUTO 22019KT 9999 -RA BKN008 OVC009 06/05 Q1003 NOSIG

EXPIRED METARs :
  • 161155Z AUTO 22019KT 190V260 9999 SCT006 OVC008 07/06 Q1004 TEMPO 6000 -DZ
  • 161125Z AUTO 22018KT 4400 DZ FEW006 BKN007 OVC008 07/06 Q1004 REDZ BECMG 6000 -DZ
  • 161055Z AUTO 22018KT 190V250 5000 -DZ SCT006 OVC007 07/06 Q1005 TEMPO 4000 DZ
  • 161025Z AUTO 22018KT 190V250 2800 +DZRA SCT006 BKN007 OVC009 07/06 Q1005 BECMG 6000 -DZ
  • 160955Z AUTO 22015KT 3600 -RA BKN006 BKN007 OVC008 07/06 Q1005 BECMG 6000

TAF TAF EHGG
Valid from the 16 at 12:00 until the 17 at 18:00 UTC


161123Z 1612/1718 22018KT 7000 -DZ BKN008
BECMG 1612/1614 9999 BKN015
PROB30
TEMPO 1616/1619 7000 -RADZ BKN014
BECMG 1619/1621 6000 RA BKN012
PROB40
TEMPO 1620/1622 BKN008
BECMG 1621/1624 26013KT 9999 NSW SCT030
BECMG 1707/1710 29010KT
TEMPO 1708/1711 32015G25KT 4000 SHRA SHRASNGS BKN008 SCT015CB
PROB40
TEMPO 1711/1718 4000 SHRA SHRASNGS BKN008 SCT015CB
No reported NOTAMs for that airfield.



MET'MAP, your aeronautical weather chart ! - Copyright ORBIFLY December 2007 - Disclaimer

ORBIFLY MET'MAP TEAM :

Programming & Development : Alexandra Zaïnal
Concept & Development : Baudouin d'Aumeries
Co-Development & Prog : Marc-Olivier Méhu
Technical & hardware support : Manuel Goepfert

Contact : metmap@orbifly.com




SOURCES & CREDITS :

   NOAA